Uliastai, China
Current Conditions -  °F | °C
As of 1:30 PM on Sunday 26 Oct 2014 (Local Time) from ZBAA Reporting Station
Clear Clear  
Wind Chill: 63°   Ceiling: Unl
Heat Index: 63°   Visibility: 6mi
Dew Point: 10°   Wind: 13mph
Humidity: 13%   Direction: 50°NE
Pressure: 30.3"   Gusts: NA
Location:  45.52°N, 116.97°E
Report Text: ZBAA 260530Z 05006MPS 020V080 CAVOK 17/M12 Q1026 NOSIG
Loading
Personal Weather Stations






























Interactive Weather Map
Tropical Storm Tracking
New forecast layout! Learn more

10-Day Weather Forecast

Advertisements
Track Severe Weather on mobile